Time;durP1;ratioP1;P1;durP2;ratioP2;P2;SDS_P1;SDS_P2;PMS_P1;PMS_P2;Temp;Humidity;BMP_temperature;BMP_pressure;BME280_temperature;BME280_humidity;BME280_pressure;Samples;Min_cycle;Max_cycle;Signal;HPM_P1;HPM_P2
2023/10/28 00:01:36;;;;;;;22.63;9.05;;;9.90;99.90;;;;;;5083538;28;20040;-67
2023/10/28 00:04:04;;;;;;;25.10;9.70;;;9.90;99.90;;;;;;5082234;28;20036;-67
2023/10/28 00:06:30;;;;;;;22.60;9.75;;;9.90;99.90;;;;;;5083871;28;20539;-67
2023/10/28 00:08:56;;;;;;;26.63;9.82;;;9.90;99.90;;;;;;5082955;28;20121;-67
2023/10/28 00:11:22;;;;;;;22.35;10.07;;;9.90;99.90;;;;;;5088583;28;20024;-67
2023/10/28 00:13:47;;;;;;;24.17;10.25;;;9.90;99.90;;;;;;5088520;28;20103;-67
2023/10/28 00:16:13;;;;;;;23.15;10.20;;;9.90;99.90;;;;;;5086836;28;20111;-67
2023/10/28 00:18:39;;;;;;;22.98;9.18;;;9.90;99.90;;;;;;5091145;28;20065;-67
2023/10/28 00:21:07;;;;;;;23.98;10.27;;;9.90;99.90;;;;;;5086130;28;20126;-67
2023/10/28 00:23:33;;;;;;;23.73;10.02;;;9.90;99.90;;;;;;5081383;28;20028;-67
2023/10/28 00:26:04;;;;;;;21.65;9.55;;;9.90;99.90;;;;;;5080545;28;20444;-67
2023/10/28 00:28:33;;;;;;;21.25;10.55;;;9.90;99.90;;;;;;5081851;28;20032;-67
2023/10/28 00:31:02;;;;;;;26.25;10.70;;;10.00;99.90;;;;;;5081469;28;20032;-67
2023/10/28 00:33:27;;;;;;;22.83;10.57;;;10.00;99.90;;;;;;5082781;28;20394;-67
2023/10/28 00:35:54;;;;;;;22.77;10.57;;;10.00;99.90;;;;;;5083550;28;20067;-67
2023/10/28 00:38:23;;;;;;;22.05;11.35;;;10.00;99.90;;;;;;5083710;28;20101;-67
2023/10/28 00:40:49;;;;;;;24.30;11.85;;;10.00;99.90;;;;;;5086649;28;20035;-67
2023/10/28 00:43:14;;;;;;;23.85;11.30;;;10.00;99.90;;;;;;5085714;28;20040;-67
2023/10/28 00:45:40;;;;;;;25.67;11.80;;;10.00;99.90;;;;;;5082426;28;20371;-67
2023/10/28 00:48:07;;;;;;;23.35;12.27;;;10.00;99.90;;;;;;5082996;28;20035;-67
2023/10/28 00:50:33;;;;;;;24.23;12.20;;;10.00;99.90;;;;;;5081410;28;20028;-67
2023/10/28 00:53:00;;;;;;;22.65;12.95;;;10.00;99.90;;;;;;5081186;28;20048;-67
2023/10/28 00:55:29;;;;;;;28.40;13.23;;;10.00;99.90;;;;;;5081181;28;20036;-67
2023/10/28 00:57:55;;;;;;;27.45;11.88;;;10.00;99.90;;;;;;5082934;28;20070;-67
2023/10/28 01:00:21;;;;;;;25.90;12.90;;;10.10;99.90;;;;;;5082779;28;20456;-67
2023/10/28 01:02:46;;;;;;;25.95;13.10;;;10.10;99.90;;;;;;5082477;28;20052;-67
2023/10/28 01:05:13;;;;;;;28.77;12.85;;;10.10;99.90;;;;;;5083879;28;20020;-67
2023/10/28 01:07:44;;;;;;;28.60;14.10;;;10.20;99.90;;;;;;5084054;28;20043;-67
2023/10/28 01:10:10;;;;;;;26.65;13.93;;;10.20;99.90;;;;;;5082764;28;20033;-67
2023/10/28 01:12:37;;;;;;;26.35;14.30;;;10.20;99.90;;;;;;5090202;28;20054;-67
2023/10/28 01:15:03;;;;;;;27.92;14.15;;;10.30;99.90;;;;;;5084921;28;20451;-67
2023/10/28 01:17:31;;;;;;;25.27;14.10;;;10.30;99.90;;;;;;5080224;28;20036;-68
2023/10/28 01:19:56;;;;;;;27.60;14.50;;;10.30;99.90;;;;;;5079980;28;20037;-67
2023/10/28 01:22:26;;;;;;;27.67;13.93;;;10.30;99.90;;;;;;5081151;28;20021;-67
2023/10/28 01:24:52;;;;;;;26.08;13.63;;;10.40;99.90;;;;;;5080240;28;20033;-67
2023/10/28 01:27:19;;;;;;;31.70;14.48;;;10.30;99.90;;;;;;5080742;28;20031;-67
2023/10/28 01:29:47;;;;;;;28.08;14.55;;;10.40;99.90;;;;;;5087084;28;20036;-67
2023/10/28 01:32:14;;;;;;;27.27;14.38;;;10.40;99.90;;;;;;5083066;28;20099;-67
2023/10/28 01:34:52;;;;;;;28.38;14.93;;;10.40;99.90;;;;;;5083785;28;20027;-67
2023/10/28 01:37:19;;;;;;;27.40;14.20;;;10.40;99.90;;;;;;5082927;28;20068;-67
2023/10/28 01:39:50;;;;;;;28.20;14.35;;;10.40;99.90;;;;;;5087225;28;20024;-67
2023/10/28 01:42:16;;;;;;;28.65;13.95;;;10.40;99.90;;;;;;5087948;28;20452;-67
2023/10/28 01:44:42;;;;;;;32.08;15.93;;;10.40;99.90;;;;;;5084374;28;20020;-67
2023/10/28 01:47:08;;;;;;;27.00;15.55;;;10.50;99.90;;;;;;5080044;28;20723;-68
2023/10/28 01:49:40;;;;;;;29.00;15.38;;;10.50;99.90;;;;;;5082740;28;20029;-67
2023/10/28 01:52:09;;;;;;;31.67;15.15;;;10.50;99.90;;;;;;5086694;28;20027;-67
2023/10/28 01:54:35;;;;;;;26.92;15.23;;;10.50;99.90;;;;;;5082192;28;20066;-67
2023/10/28 01:57:06;;;;;;;29.95;15.10;;;10.50;99.90;;;;;;5082593;28;20064;-67
2023/10/28 01:59:36;;;;;;;26.52;14.80;;;10.50;99.90;;;;;;5081059;28;20405;-67
2023/10/28 02:02:02;;;;;;;31.35;16.08;;;10.40;99.90;;;;;;5082103;28;20050;-67
2023/10/28 02:04:31;;;;;;;28.38;15.65;;;10.40;99.90;;;;;;5087250;28;20273;-67
2023/10/28 02:07:00;;;;;;;33.17;16.08;;;10.40;99.90;;;;;;5086944;28;20068;-67
2023/10/28 02:09:27;;;;;;;33.35;15.55;;;10.40;99.90;;;;;;5083514;28;20059;-67
2023/10/28 02:11:53;;;;;;;31.58;16.35;;;10.30;99.90;;;;;;5086019;28;20484;-67
2023/10/28 02:14:20;;;;;;;34.65;17.25;;;10.40;99.90;;;;;;5081537;28;20020;-67
2023/10/28 02:16:45;;;;;;;32.00;16.67;;;10.30;99.90;;;;;;5083839;28;20028;-67
2023/10/28 02:19:11;;;;;;;37.10;17.50;;;10.30;99.90;;;;;;5079682;28;20107;-67
2023/10/28 02:21:36;;;;;;;30.95;17.85;;;10.30;99.90;;;;;;5081018;28;20033;-67
2023/10/28 02:24:03;;;;;;;34.72;17.05;;;10.30;99.90;;;;;;5081193;28;20095;-67
2023/10/28 02:26:29;;;;;;;34.90;17.73;;;10.30;99.90;;;;;;5086604;28;20028;-67
2023/10/28 02:28:55;;;;;;;39.63;18.73;;;10.30;99.90;;;;;;5088507;28;20056;-67
2023/10/28 02:31:21;;;;;;;31.95;18.98;;;10.30;99.90;;;;;;5086136;28;20059;-67
2023/10/28 02:33:46;;;;;;;34.75;18.17;;;10.30;99.90;;;;;;5088022;28;20028;-67
2023/10/28 02:36:12;;;;;;;32.42;18.08;;;10.30;99.90;;;;;;5079504;28;20036;-67
2023/10/28 02:38:38;;;;;;;37.10;18.67;;;10.40;99.90;;;;;;5079848;28;20033;-67
2023/10/28 02:41:06;;;;;;;39.90;18.60;;;10.30;99.90;;;;;;5095997;28;20054;-67
2023/10/28 02:43:35;;;;;;;39.72;18.73;;;10.40;99.90;;;;;;5095768;28;20083;-67
2023/10/28 02:46:01;;;;;;;37.70;18.80;;;10.40;99.90;;;;;;5097180;28;20028;-67
2023/10/28 02:48:27;;;;;;;39.83;19.08;;;10.40;99.90;;;;;;5093208;28;20032;-67
2023/10/28 02:50:53;;;;;;;40.90;18.45;;;10.40;99.90;;;;;;5092354;28;20028;-67
2023/10/28 02:53:19;;;;;;;40.22;18.40;;;10.40;99.90;;;;;;5083048;28;20052;-67
2023/10/28 02:55:44;;;;;;;40.15;18.35;;;10.40;99.90;;;;;;5082956;28;20495;-67
2023/10/28 02:58:10;;;;;;;35.22;18.48;;;10.40;99.90;;;;;;5086950;28;20031;-67
2023/10/28 03:00:35;;;;;;;40.78;19.00;;;10.40;99.90;;;;;;5088596;28;20032;-67
2023/10/28 03:03:02;;;;;;;39.08;20.23;;;10.40;99.90;;;;;;5088231;28;20027;-68
2023/10/28 03:05:29;;;;;;;41.13;20.73;;;10.40;99.90;;;;;;5086820;28;20024;-67
2023/10/28 03:07:55;;;;;;;45.90;20.65;;;10.40;99.90;;;;;;5082635;28;20029;-67
2023/10/28 03:10:20;;;;;;;37.15;19.48;;;10.40;99.90;;;;;;5084062;28;20067;-67
2023/10/28 03:12:47;;;;;;;43.78;20.38;;;10.50;99.90;;;;;;5088907;28;20110;-67
2023/10/28 03:15:13;;;;;;;41.80;20.15;;;10.50;99.90;;;;;;5089089;28;20040;-67
2023/10/28 03:17:38;;;;;;;37.22;20.35;;;10.50;99.90;;;;;;5085324;28;20058;-67
2023/10/28 03:20:11;;;;;;;38.78;20.48;;;10.50;99.90;;;;;;5085117;28;20025;-67
2023/10/28 03:22:37;;;;;;;41.20;20.30;;;10.50;99.90;;;;;;5090878;28;20031;-67
2023/10/28 03:25:03;;;;;;;36.55;19.90;;;10.50;99.90;;;;;;5090304;28;20032;-67
2023/10/28 03:27:29;;;;;;;40.75;20.20;;;10.60;99.90;;;;;;5086083;28;20029;-67
2023/10/28 03:29:55;;;;;;;40.53;19.85;;;10.60;99.90;;;;;;5081708;28;20052;-67
2023/10/28 03:32:21;;;;;;;41.15;19.63;;;10.60;99.90;;;;;;5082951;28;20035;-67
2023/10/28 03:34:47;;;;;;;40.05;20.15;;;10.60;99.90;;;;;;5082943;28;20036;-67
2023/10/28 03:37:13;;;;;;;37.85;19.60;;;10.60;99.90;;;;;;5082752;28;20032;-67
2023/10/28 03:39:38;;;;;;;37.40;19.60;;;10.70;99.90;;;;;;5082735;28;20126;-67
2023/10/28 03:42:07;;;;;;;37.33;19.50;;;10.70;99.90;;;;;;5082729;28;20120;-67
2023/10/28 03:44:34;;;;;;;38.03;19.85;;;10.70;99.90;;;;;;5085885;28;20420;-67
2023/10/28 03:46:59;;;;;;;37.22;18.23;;;10.70;99.90;;;;;;5083990;28;20460;-67
2023/10/28 03:49:25;;;;;;;41.60;20.17;;;10.70;99.90;;;;;;5085956;28;20039;-67
2023/10/28 03:51:51;;;;;;;40.35;18.20;;;10.70;99.90;;;;;;5088471;28;20028;-67
2023/10/28 03:54:16;;;;;;;36.17;18.70;;;10.70;99.90;;;;;;5089783;28;20127;-67
2023/10/28 03:56:42;;;;;;;34.30;18.85;;;10.70;99.90;;;;;;5088190;28;20072;-67
2023/10/28 03:59:07;;;;;;;41.85;19.90;;;10.70;99.90;;;;;;5083885;28;20067;-67
2023/10/28 04:01:33;;;;;;;39.58;18.40;;;10.70;99.90;;;;;;5085233;28;20124;-67
2023/10/28 04:03:58;;;;;;;38.15;18.95;;;10.70;99.90;;;;;;5082094;28;20111;-67
2023/10/28 04:06:25;;;;;;;35.72;17.83;;;10.70;99.90;;;;;;5082604;28;20055;-67
2023/10/28 04:08:50;;;;;;;36.03;18.60;;;10.70;99.90;;;;;;5082077;28;20068;-67
2023/10/28 04:11:16;;;;;;;39.28;19.17;;;10.70;99.90;;;;;;5082429;28;20051;-66
2023/10/28 04:13:42;;;;;;;33.42;18.75;;;10.70;99.90;;;;;;5083181;28;20039;-67
2023/10/28 04:16:07;;;;;;;37.70;18.55;;;10.60;99.90;;;;;;5082961;28;20040;-67
2023/10/28 04:18:33;;;;;;;34.88;18.55;;;10.60;99.90;;;;;;5088175;28;20460;-67
2023/10/28 04:20:59;;;;;;;33.17;17.70;;;10.60;99.90;;;;;;5084548;28;20117;-67
2023/10/28 04:23:24;;;;;;;38.53;17.77;;;10.70;99.90;;;;;;5087934;28;20426;-67
2023/10/28 04:25:50;;;;;;;32.85;16.42;;;10.70;99.90;;;;;;5089074;28;20111;-67
2023/10/28 04:28:16;;;;;;;36.67;16.45;;;10.70;99.90;;;;;;5090700;28;20032;-67
2023/10/28 04:30:41;;;;;;;37.70;17.20;;;10.80;99.90;;;;;;5080945;28;20050;-67
2023/10/28 04:33:07;;;;;;;33.03;15.95;;;10.80;99.90;;;;;;5081412;28;20145;-67
2023/10/28 04:35:32;;;;;;;28.42;15.50;;;10.90;99.90;;;;;;5081717;28;20068;-67
2023/10/28 04:37:58;;;;;;;30.30;15.18;;;10.90;99.90;;;;;;5083103;28;20033;-67
2023/10/28 04:40:26;;;;;;;29.85;14.93;;;10.90;99.90;;;;;;5086890;28;20024;-67
2023/10/28 04:42:53;;;;;;;27.30;13.73;;;10.90;99.90;;;;;;5082905;28;20491;-67
2023/10/28 04:45:20;;;;;;;25.23;13.57;;;10.90;99.90;;;;;;5086998;28;20078;-67
2023/10/28 04:47:46;;;;;;;25.63;13.52;;;10.90;99.90;;;;;;5084963;28;20107;-68
2023/10/28 04:50:12;;;;;;;24.98;13.63;;;11.00;99.90;;;;;;5087013;28;20105;-67
2023/10/28 04:52:40;;;;;;;26.98;13.05;;;11.00;99.90;;;;;;5089534;28;20100;-67
2023/10/28 04:55:05;;;;;;;24.20;13.35;;;11.00;99.90;;;;;;5080971;28;20043;-67
2023/10/28 04:57:31;;;;;;;24.83;12.63;;;11.00;99.90;;;;;;5080156;28;20036;-67
2023/10/28 04:59:56;;;;;;;23.88;12.32;;;11.00;99.90;;;;;;5080596;28;20111;-67
2023/10/28 05:02:22;;;;;;;24.63;12.20;;;11.10;99.90;;;;;;5081786;28;20025;-66
2023/10/28 05:04:48;;;;;;;21.58;10.82;;;11.10;99.90;;;;;;5081286;28;20065;-67
2023/10/28 05:07:13;;;;;;;20.77;10.82;;;11.10;99.90;;;;;;5081436;28;20028;-67
2023/10/28 05:09:39;;;;;;;20.88;9.63;;;11.10;99.90;;;;;;5081964;28;20029;-67
2023/10/28 05:12:04;;;;;;;18.42;10.35;;;11.10;99.90;;;;;;5082039;28;20024;-67
2023/10/28 05:14:30;;;;;;;17.88;9.85;;;11.10;99.90;;;;;;5086626;28;20024;-67
2023/10/28 05:16:56;;;;;;;20.83;10.27;;;11.10;99.90;;;;;;5083114;28;20040;-66
2023/10/28 05:19:22;;;;;;;21.40;11.18;;;11.20;99.90;;;;;;5087373;28;20380;-67
2023/10/28 05:21:48;;;;;;;23.50;11.02;;;11.20;99.90;;;;;;5089086;28;20421;-67
2023/10/28 05:24:14;;;;;;;22.45;12.15;;;11.20;99.90;;;;;;5080641;28;20051;-67
2023/10/28 05:26:40;;;;;;;23.75;12.38;;;11.10;99.90;;;;;;5080140;28;20044;-67
2023/10/28 05:29:06;;;;;;;23.85;13.00;;;11.10;99.90;;;;;;5080921;28;20154;-67
2023/10/28 05:31:32;;;;;;;22.05;13.25;;;11.10;99.90;;;;;;5080921;28;20035;-67
2023/10/28 05:33:58;;;;;;;22.40;13.57;;;11.10;99.90;;;;;;5080551;28;20494;-67
2023/10/28 05:36:23;;;;;;;25.55;14.75;;;11.10;99.90;;;;;;5082252;28;20035;-67
2023/10/28 05:38:49;;;;;;;30.60;14.73;;;11.10;99.90;;;;;;5083384;28;20028;-67
2023/10/28 05:41:15;;;;;;;26.88;15.80;;;11.10;99.90;;;;;;5083398;28;20031;-68
2023/10/28 05:43:40;;;;;;;28.13;16.20;;;11.20;99.90;;;;;;5084298;28;20036;-67
2023/10/28 05:46:06;;;;;;;31.15;17.50;;;11.20;99.90;;;;;;5088015;28;20020;-67
2023/10/28 05:48:32;;;;;;;31.05;17.75;;;11.20;99.90;;;;;;5088489;28;20024;-67
2023/10/28 05:50:58;;;;;;;30.30;18.25;;;11.10;99.90;;;;;;5081825;28;20029;-67
2023/10/28 05:53:24;;;;;;;29.33;18.48;;;11.10;99.90;;;;;;5079644;28;20522;-67
2023/10/28 05:55:50;;;;;;;27.55;18.05;;;11.10;99.90;;;;;;5079564;28;20728;-67
2023/10/28 05:58:16;;;;;;;30.05;18.65;;;11.10;99.90;;;;;;5081919;28;20023;-67
2023/10/28 06:00:42;;;;;;;30.38;18.52;;;11.10;99.90;;;;;;5085520;28;20085;-67
2023/10/28 06:03:08;;;;;;;29.63;18.40;;;11.10;99.90;;;;;;5097677;28;20027;-67
2023/10/28 06:05:34;;;;;;;31.63;18.63;;;11.10;99.90;;;;;;5105329;28;20031;-67
2023/10/28 06:08:00;;;;;;;29.38;17.33;;;11.10;99.90;;;;;;5110519;28;20129;-67
2023/10/28 06:10:26;;;;;;;27.30;16.90;;;11.10;99.90;;;;;;5095358;28;20028;-67
2023/10/28 06:12:52;;;;;;;28.73;17.10;;;11.10;99.90;;;;;;5109531;28;20119;-67
2023/10/28 06:15:17;;;;;;;28.98;16.33;;;11.10;99.90;;;;;;5093960;28;20034;-67
2023/10/28 06:17:45;;;;;;;28.75;15.90;;;11.10;99.90;;;;;;5094042;28;20086;-67
2023/10/28 06:20:11;;;;;;;24.65;14.68;;;11.10;99.90;;;;;;5093298;28;20024;-67
2023/10/28 06:22:36;;;;;;;25.88;13.20;;;11.20;99.90;;;;;;5093489;28;20453;-67
2023/10/28 06:25:04;;;;;;;24.73;12.75;;;11.20;99.90;;;;;;5093446;28;20097;-68
2023/10/28 06:27:30;;;;;;;24.90;13.35;;;11.20;99.90;;;;;;5109913;28;20035;-67
2023/10/28 06:29:56;;;;;;;19.85;11.70;;;11.20;99.90;;;;;;5104749;28;20027;-67
2023/10/28 06:32:21;;;;;;;19.52;11.77;;;11.20;99.90;;;;;;5100334;28;20107;-67
2023/10/28 06:34:47;;;;;;;22.98;10.77;;;11.20;99.90;;;;;;5104149;28;20028;-67
2023/10/28 06:37:13;;;;;;;21.05;11.55;;;11.20;99.90;;;;;;5110454;28;20093;-67
2023/10/28 06:39:39;;;;;;;19.80;10.60;;;11.20;99.90;;;;;;5117714;28;20109;-68
2023/10/28 06:42:05;;;;;;;22.90;11.40;;;11.20;99.90;;;;;;5105245;28;20111;-67
2023/10/28 06:44:32;;;;;;;21.13;12.00;;;11.30;99.90;;;;;;5097282;28;20036;-67
2023/10/28 06:46:58;;;;;;;23.95;12.52;;;11.30;99.90;;;;;;5097061;28;20036;-67
2023/10/28 06:49:23;;;;;;;20.50;11.73;;;11.30;99.90;;;;;;5096870;28;20024;-67
2023/10/28 06:51:50;;;;;;;24.90;13.10;;;11.30;99.90;;;;;;5097028;28;20035;-67
2023/10/28 06:54:15;;;;;;;20.58;12.60;;;11.30;99.90;;;;;;5096098;28;20055;-67
2023/10/28 06:56:41;;;;;;;26.48;13.85;;;11.30;99.90;;;;;;5085966;28;20044;-67
2023/10/28 06:59:07;;;;;;;25.05;13.40;;;11.30;99.90;;;;;;5087393;28;20035;-67
2023/10/28 07:01:34;;;;;;;25.23;13.95;;;11.30;99.90;;;;;;5092649;28;20027;-67
2023/10/28 07:04:01;;;;;;;24.95;13.15;;;11.30;99.90;;;;;;5096874;28;20070;-67
2023/10/28 07:06:26;;;;;;;23.75;13.18;;;11.30;99.90;;;;;;5097118;28;20031;-67
2023/10/28 07:08:52;;;;;;;23.55;11.95;;;11.40;99.90;;;;;;5096898;28;20028;-67
2023/10/28 07:11:17;;;;;;;25.15;13.43;;;11.30;99.90;;;;;;5097302;28;20024;-67
2023/10/28 07:13:44;;;;;;;26.98;15.02;;;11.30;99.90;;;;;;5097084;28;20115;-67
2023/10/28 07:16:10;;;;;;;27.55;16.85;;;11.30;99.90;;;;;;5097029;28;20040;-67
2023/10/28 07:18:35;;;;;;;21.48;13.73;;;11.30;99.90;;;;;;5097058;28;20027;-67
2023/10/28 07:21:02;;;;;;;28.70;16.25;;;11.30;99.90;;;;;;5077837;28;20028;-67
2023/10/28 07:23:29;;;;;;;27.50;13.75;;;11.40;99.90;;;;;;5076052;28;20052;-67
2023/10/28 07:25:54;;;;;;;25.77;12.95;;;11.40;99.90;;;;;;5094697;28;20083;-67
2023/10/28 07:28:20;;;;;;;24.73;11.77;;;11.40;99.90;;;;;;5096748;28;20032;-67
2023/10/28 07:30:50;;;;;;;25.95;13.38;;;11.50;99.90;;;;;;5096628;28;20059;-66
2023/10/28 07:33:18;;;;;;;30.05;14.55;;;11.50;99.90;;;;;;5091085;28;20043;-66
2023/10/28 07:35:48;;;;;;;22.00;11.27;;;11.60;99.90;;;;;;5076207;28;20040;-66
2023/10/28 07:38:15;;;;;;;22.35;12.00;;;11.50;99.90;;;;;;5077394;28;20078;-66
2023/10/28 07:40:41;;;;;;;22.75;11.93;;;11.60;99.90;;;;;;5075444;28;20097;-66
2023/10/28 07:43:07;;;;;;;20.17;10.52;;;11.60;99.90;;;;;;5075614;28;20035;-66
2023/10/28 07:45:33;;;;;;;24.48;12.65;;;11.70;99.90;;;;;;5075211;28;20025;-66
2023/10/28 07:47:59;;;;;;;17.42;9.38;;;11.70;99.90;;;;;;5075492;28;20032;-66
2023/10/28 07:50:25;;;;;;;19.40;10.00;;;11.70;99.90;;;;;;5081074;28;20020;-66
2023/10/28 07:52:50;;;;;;;22.33;10.23;;;11.70;99.90;;;;;;5075103;28;20049;-66
2023/10/28 07:55:16;;;;;;;24.25;10.23;;;11.80;99.90;;;;;;5075010;28;20032;-66
2023/10/28 07:57:43;;;;;;;19.98;9.32;;;11.80;99.90;;;;;;5076861;28;20064;-66
2023/10/28 08:00:11;;;;;;;20.90;10.48;;;11.80;99.90;;;;;;5075129;28;20032;-66
2023/10/28 08:02:37;;;;;;;18.40;8.27;;;11.80;99.90;;;;;;5074949;28;20050;-66
2023/10/28 08:05:05;;;;;;;18.75;9.93;;;11.80;99.90;;;;;;5074545;28;20050;-66
2023/10/28 08:07:30;;;;;;;20.17;9.63;;;11.80;99.90;;;;;;5075043;28;20028;-66
2023/10/28 08:09:57;;;;;;;20.73;8.68;;;11.80;99.90;;;;;;5074749;28;20116;-66
2023/10/28 08:12:25;;;;;;;23.08;10.48;;;11.90;99.90;;;;;;5074611;28;20468;-66
2023/10/28 08:14:52;;;;;;;20.80;8.85;;;11.90;99.90;;;;;;5074918;28;20035;-66
2023/10/28 08:17:18;;;;;;;20.30;7.55;;;12.00;99.90;;;;;;5074476;28;20042;-66
2023/10/28 08:19:43;;;;;;;20.45;8.45;;;12.00;99.90;;;;;;5082046;28;20112;-66
2023/10/28 08:22:12;;;;;;;18.17;7.53;;;12.00;99.90;;;;;;5074497;28;20029;-66
2023/10/28 08:24:39;;;;;;;21.77;9.60;;;12.00;99.90;;;;;;5074700;28;20024;-66
2023/10/28 08:27:05;;;;;;;21.77;8.98;;;12.00;99.90;;;;;;5074580;28;20016;-67
2023/10/28 08:29:32;;;;;;;20.77;8.65;;;11.90;99.90;;;;;;5074340;28;20028;-67
2023/10/28 08:31:58;;;;;;;17.98;8.52;;;11.90;99.90;;;;;;5076757;28;20321;-67
2023/10/28 08:34:24;;;;;;;21.27;8.88;;;11.90;99.90;;;;;;5074025;28;20154;-67
2023/10/28 08:36:52;;;;;;;23.52;10.00;;;11.90;99.90;;;;;;5074416;28;20098;-67
2023/10/28 08:39:17;;;;;;;19.42;8.20;;;11.90;99.90;;;;;;5078622;28;20051;-66
2023/10/28 08:41:44;;;;;;;19.17;8.68;;;11.90;99.90;;;;;;5095611;28;20109;-66
2023/10/28 08:44:14;;;;;;;20.50;8.20;;;11.90;99.90;;;;;;5095780;28;20043;-67
2023/10/28 08:46:41;;;;;;;20.45;8.90;;;11.90;99.90;;;;;;5115938;28;20067;-66
2023/10/28 08:49:12;;;;;;;22.33;8.25;;;11.90;99.90;;;;;;5115508;28;20038;-68
2023/10/28 08:51:44;;;;;;;18.42;7.45;;;11.90;99.90;;;;;;5115544;28;20030;-67
2023/10/28 08:54:10;;;;;;;21.42;9.32;;;11.80;99.90;;;;;;5095086;28;20117;-67
2023/10/28 08:56:40;;;;;;;20.27;9.00;;;11.80;99.90;;;;;;5094270;28;20134;-67
2023/10/28 08:59:07;;;;;;;20.02;7.45;;;11.80;99.90;;;;;;5086389;28;20028;-67
2023/10/28 09:01:34;;;;;;;20.45;8.55;;;11.80;99.90;;;;;;5083634;28;20077;-67
2023/10/28 09:04:04;;;;;;;21.75;8.23;;;11.80;99.90;;;;;;5084773;28;20024;-67
2023/10/28 09:06:30;;;;;;;23.17;8.45;;;11.80;99.90;;;;;;5083707;28;20078;-67
2023/10/28 09:08:57;;;;;;;20.30;8.55;;;11.90;99.90;;;;;;5086276;28;20028;-67
2023/10/28 09:11:23;;;;;;;18.75;7.85;;;11.90;99.90;;;;;;5085111;28;20057;-67
2023/10/28 09:13:49;;;;;;;18.10;6.85;;;12.00;99.90;;;;;;5083409;28;21652;-67
2023/10/28 09:16:15;;;;;;;19.92;7.10;;;12.00;99.90;;;;;;5084163;28;20128;-67
2023/10/28 09:18:42;;;;;;;14.50;6.55;;;12.00;99.90;;;;;;5086776;28;20047;-66
2023/10/28 09:21:10;;;;;;;20.98;7.03;;;12.00;99.90;;;;;;5085340;28;20052;-66
2023/10/28 09:23:36;;;;;;;16.08;7.38;;;12.00;99.90;;;;;;5094707;28;20031;-67
2023/10/28 09:26:02;;;;;;;52.72;10.38;;;12.00;99.90;;;;;;5093657;28;20123;-68
2023/10/28 09:28:28;;;;;;;18.55;7.13;;;12.00;99.90;;;;;;5078364;28;20031;-68
2023/10/28 09:30:53;;;;;;;21.63;7.90;;;12.00;99.90;;;;;;5073644;28;20386;-68
2023/10/28 09:33:20;;;;;;;17.13;7.50;;;12.00;99.90;;;;;;5076645;28;20020;-68
2023/10/28 09:35:46;;;;;;;21.67;7.75;;;12.00;99.90;;;;;;5073209;28;20067;-68
2023/10/28 09:38:12;;;;;;;23.15;7.88;;;12.00;99.90;;;;;;5073254;28;20122;-68
2023/10/28 09:40:39;;;;;;;22.80;10.85;;;12.00;99.90;;;;;;5073215;28;20469;-68
2023/10/28 09:43:06;;;;;;;21.98;9.27;;;12.00;99.90;;;;;;5075030;28;20021;-69
2023/10/28 09:45:32;;;;;;;20.92;8.40;;;12.10;99.90;;;;;;5089157;28;20040;-69
2023/10/28 09:48:01;;;;;;;19.23;8.35;;;12.10;99.90;;;;;;5085367;28;20051;-68
2023/10/28 09:50:29;;;;;;;22.77;8.02;;;12.10;99.90;;;;;;5076971;28;20098;-68
2023/10/28 09:52:56;;;;;;;18.67;7.32;;;12.20;99.90;;;;;;5072887;28;20475;-67
2023/10/28 09:55:34;;;;;;;21.40;8.93;;;12.20;99.90;;;;;;5072993;28;20027;-68
2023/10/28 09:58:23;;;;;;;19.48;7.63;;;12.30;99.90;;;;;;5073450;28;20044;-68
2023/10/28 10:00:54;;;;;;;17.17;7.05;;;12.30;99.90;;;;;;5085338;28;20055;-68
2023/10/28 10:03:56;;;;;;;20.75;8.45;;;12.40;99.90;;;;;;5093360;28;20039;-68
2023/10/28 10:06:22;;;;;;;;;;;12.40;99.90;;;;;;5091027;28;20035;-68
2023/10/28 10:08:49;;;;;;;21.90;7.25;;;12.40;99.90;;;;;;5090952;28;19914;-69
2023/10/28 10:11:22;;;;;;;18.67;6.97;;;12.40;99.90;;;;;;5106175;28;20032;-68
2023/10/28 10:13:47;;;;;;;17.58;6.80;;;12.30;99.90;;;;;;5100994;28;20111;-67
2023/10/28 10:16:52;;;;;;;21.30;6.95;;;12.30;99.90;;;;;;5105811;28;20118;-67
2023/10/28 10:19:24;;;;;;;18.70;6.55;;;12.30;99.90;;;;;;5105828;28;20483;-67
2023/10/28 10:21:53;;;;;;;;;;;12.40;99.90;;;;;;5103724;28;20031;-66
2023/10/28 10:24:20;;;;;;;18.33;6.07;;;12.50;99.90;;;;;;5102989;28;19930;-69
2023/10/28 10:26:56;;;;;;;18.63;6.15;;;12.50;99.90;;;;;;5102077;28;20043;-66
2023/10/28 10:29:26;;;;;;;17.10;6.10;;;12.70;99.90;;;;;;5102007;28;20036;-66
2023/10/28 10:31:52;;;;;;;18.15;6.65;;;12.80;99.90;;;;;;5105839;28;20383;-66
2023/10/28 10:34:36;;;;;;;17.00;5.90;;;12.90;99.90;;;;;;5103541;28;20021;-66
2023/10/28 10:37:03;;;;;;;15.43;5.28;;;13.00;99.90;;;;;;5104436;28;20109;-66
2023/10/28 10:39:41;;;;;;;16.05;5.32;;;13.00;99.90;;;;;;5102503;28;20034;-67
2023/10/28 10:42:10;;;;;;;18.13;6.38;;;13.00;99.90;;;;;;5103974;28;20028;-67
2023/10/28 10:44:36;;;;;;;21.92;6.40;;;12.90;99.90;;;;;;5100586;28;20037;-66
2023/10/28 10:47:03;;;;;;;15.68;6.30;;;12.90;99.90;;;;;;5103099;28;20028;-66
2023/10/28 10:49:31;;;;;;;14.82;5.63;;;12.90;99.90;;;;;;5099826;28;20111;-66
2023/10/28 10:52:03;;;;;;;13.73;6.47;;;13.00;99.90;;;;;;5103316;28;20181;-66
2023/10/28 10:54:30;;;;;;;;;;;13.10;99.90;;;;;;5098688;28;20096;-66
2023/10/28 10:56:56;;;;;;;10.82;4.30;;;13.20;99.90;;;;;;5097797;28;19922;-66
2023/10/28 10:59:22;;;;;;;14.38;4.93;;;13.20;99.90;;;;;;5087099;28;20029;-67
2023/10/28 11:01:47;;;;;;;12.07;4.95;;;13.30;99.90;;;;;;5092058;28;20051;-66
2023/10/28 11:04:13;;;;;;;11.40;4.40;;;13.40;99.90;;;;;;5092154;28;20475;-67
2023/10/28 11:06:39;;;;;;;15.23;4.70;;;13.40;99.90;;;;;;5090346;28;20031;-67
2023/10/28 11:09:06;;;;;;;12.10;4.70;;;13.50;99.90;;;;;;5089633;28;20474;-67
2023/10/28 11:11:35;;;;;;;14.38;4.57;;;13.40;99.90;;;;;;5074157;28;20035;-67
2023/10/28 11:14:02;;;;;;;10.88;4.00;;;13.40;99.90;;;;;;5090892;28;20031;-67
2023/10/28 11:16:29;;;;;;;14.20;4.97;;;13.40;99.90;;;;;;5090593;28;20032;-67
2023/10/28 11:18:55;;;;;;;16.40;4.57;;;13.40;99.90;;;;;;5100995;28;20028;-68
2023/10/28 11:21:24;;;;;;;16.33;5.25;;;13.40;99.90;;;;;;5102178;28;20019;-67
2023/10/28 11:23:54;;;;;;;17.45;4.80;;;13.50;99.90;;;;;;5105893;28;20032;-67
2023/10/28 11:26:20;;;;;;;12.55;3.85;;;13.60;99.90;;;;;;5107648;28;20480;-68
2023/10/28 11:28:46;;;;;;;12.23;3.50;;;13.60;99.90;;;;;;5111804;28;20100;-68
2023/10/28 11:31:12;;;;;;;10.32;3.33;;;13.70;99.90;;;;;;5096695;28;20024;-68
2023/10/28 11:33:43;;;;;;;11.45;3.40;;;13.70;99.90;;;;;;5103298;28;20448;-68
2023/10/28 11:36:10;;;;;;;11.15;3.60;;;13.80;99.90;;;;;;5094424;28;20040;-68
2023/10/28 11:38:36;;;;;;;11.60;3.58;;;13.80;99.90;;;;;;5099744;28;20027;-68
2023/10/28 11:41:08;;;;;;;10.77;3.33;;;13.80;99.90;;;;;;5098373;28;20076;-68
2023/10/28 11:43:37;;;;;;;;;;;13.70;99.90;;;;;;5098099;28;20024;-67
2023/10/28 11:46:08;;;;;;;13.45;4.25;;;13.60;99.90;;;;;;5107412;28;19911;-68
2023/10/28 11:48:36;;;;;;;11.35;3.85;;;13.50;99.90;;;;;;5111062;28;20024;-68
2023/10/28 11:51:02;;;;;;;10.10;3.22;;;13.40;99.90;;;;;;5102784;28;20031;-68
2023/10/28 11:53:32;;;;;;;12.88;4.25;;;13.50;99.90;;;;;;5103096;28;20043;-68
2023/10/28 11:55:58;;;;;;;18.27;3.80;;;13.50;99.90;;;;;;5105987;28;20123;-68
2023/10/28 11:58:26;;;;;;;12.88;4.22;;;13.60;99.90;;;;;;5095160;28;20153;-68
2023/10/28 12:00:56;;;;;;;10.77;2.90;;;13.60;99.90;;;;;;5094862;28;20038;-68
2023/10/28 12:03:25;;;;;;;11.40;3.42;;;13.70;99.90;;;;;;5098842;28;20023;-68
2023/10/28 12:05:51;;;;;;;10.27;3.60;;;13.60;99.90;;;;;;5095481;28;20028;-68
2023/10/28 12:08:20;;;;;;;12.90;3.20;;;13.60;99.90;;;;;;5104798;28;20028;-68
2023/10/28 12:10:46;;;;;;;12.63;3.50;;;13.60;99.90;;;;;;5104898;28;20488;-68
2023/10/28 12:13:17;;;;;;;8.30;2.63;;;13.60;99.90;;;;;;5109653;27;20020;-68
2023/10/28 12:15:44;;;;;;;12.23;2.83;;;13.60;99.90;;;;;;5103196;28;20082;-68
2023/10/28 12:18:10;;;;;;;8.05;3.00;;;13.50;99.90;;;;;;5092503;28;20032;-68
2023/10/28 12:20:36;;;;;;;9.25;3.20;;;13.50;99.90;;;;;;5108363;28;20122;-68
2023/10/28 12:23:08;;;;;;;11.88;3.42;;;13.60;99.90;;;;;;5099186;28;20018;-68
2023/10/28 12:25:36;;;;;;;11.75;3.50;;;13.50;99.90;;;;;;5106039;28;20024;-68
2023/10/28 12:28:02;;;;;;;9.30;2.70;;;13.60;99.90;;;;;;5107296;28;20031;-68
2023/10/28 12:30:28;;;;;;;12.07;3.15;;;13.60;99.90;;;;;;5098925;28;20101;-67
2023/10/28 12:32:53;;;;;;;14.23;4.00;;;13.60;99.90;;;;;;5111495;28;20020;-68